EGSS/STN METAR and TAF weather

Enter ICAO airport designator
Station Type Date Time Source
EGSS METAR 2020/12/01 21:20 UTC NOAA

EGSS 012120Z AUTO 34005KT 9999 FEW037 04/02 Q1025


Station Type Date Time Source
EGSS Decoded METAR 2020/12/01 21:20 UTC NOAA

Stansted Airport, United Kingdom (EGSS) 51-53N 000-14E 0M
Dec 01, 2020 - 04:20 PM EST / 2020.12.01 2120 UTC
Wind: from the NNW (340 degrees) at 6 MPH (5 KT):0
Visibility: greater than 7 mile(s):0
Sky conditions: mostly clear
Temperature: 39 F (4 C)
Dew Point: 35 F (2 C)
Relative Humidity: 86%
Pressure (altimeter): 30.27 in. Hg (1025 hPa)
ob: EGSS 012120Z AUTO 34005KT 9999 FEW037 04/02 Q1025
cycle: 21

Station Type Date Time Source
EGSS TAF 2020/12/01 18:45 UTC NOAA

TAF
AMD EGSS 011837Z 0118/0224 33010KT 9999 SCT025 PROB30
TEMPO 0118/0120 BKN012 PROB40 0120/0122 8000
BECMG 0122/0201 8000 PROB30
TEMPO 0200/0208 3000 BR
BECMG 0209/0212 25006KT 9999
TEMPO 0212/0220 7000 -RA BKN014 PROB30
TEMPO 0212/0216 BKN008 PROB30
TEMPO 0216/0220 BKN004

Example: see airport list